sensor_id;sensor_type;location;lat;lon;timestamp;P1;durP1;ratioP1;P2;durP2;ratioP2
47053;SDS011;32811;52.382;5.270;2023-03-23T00:01:14;9.18;;;2.97;;
47053;SDS011;32811;52.382;5.270;2023-03-23T00:03:52;4.22;;;2.67;;
47053;SDS011;32811;52.382;5.270;2023-03-23T00:06:22;7.20;;;2.42;;
47053;SDS011;32811;52.382;5.270;2023-03-23T00:08:50;9.93;;;2.75;;
47053;SDS011;32811;52.382;5.270;2023-03-23T00:11:22;6.82;;;2.85;;
47053;SDS011;32811;52.382;5.270;2023-03-23T00:13:51;6.80;;;3.20;;
47053;SDS011;32811;52.382;5.270;2023-03-23T00:16:21;7.65;;;2.72;;
47053;SDS011;32811;52.382;5.270;2023-03-23T00:18:54;5.35;;;2.25;;
47053;SDS011;32811;52.382;5.270;2023-03-23T00:21:20;3.33;;;2.15;;
47053;SDS011;32811;52.382;5.270;2023-03-23T00:23:53;5.22;;;2.15;;
47053;SDS011;32811;52.382;5.270;2023-03-23T00:26:19;7.78;;;2.80;;
47053;SDS011;32811;52.382;5.270;2023-03-23T00:28:44;10.35;;;2.47;;
47053;SDS011;32811;52.382;5.270;2023-03-23T00:31:12;5.72;;;2.63;;
47053;SDS011;32811;52.382;5.270;2023-03-23T00:33:38;3.20;;;1.85;;
47053;SDS011;32811;52.382;5.270;2023-03-23T00:36:09;3.83;;;2.47;;
47053;SDS011;32811;52.382;5.270;2023-03-23T00:38:36;6.65;;;1.92;;
47053;SDS011;32811;52.382;5.270;2023-03-23T00:41:03;4.65;;;2.10;;
47053;SDS011;32811;52.382;5.270;2023-03-23T00:43:30;5.40;;;1.70;;
47053;SDS011;32811;52.382;5.270;2023-03-23T00:45:57;4.45;;;1.80;;
47053;SDS011;32811;52.382;5.270;2023-03-23T00:48:26;6.97;;;1.98;;
47053;SDS011;32811;52.382;5.270;2023-03-23T00:50:53;4.25;;;1.60;;
47053;SDS011;32811;52.382;5.270;2023-03-23T00:53:19;3.33;;;2.63;;
47053;SDS011;32811;52.382;5.270;2023-03-23T00:55:45;9.10;;;2.53;;
47053;SDS011;32811;52.382;5.270;2023-03-23T00:58:12;6.28;;;1.92;;
47053;SDS011;32811;52.382;5.270;2023-03-23T01:00:38;7.53;;;2.53;;
47053;SDS011;32811;52.382;5.270;2023-03-23T01:03:05;4.50;;;3.30;;
47053;SDS011;32811;52.382;5.270;2023-03-23T01:05:35;4.22;;;2.05;;
47053;SDS011;32811;52.382;5.270;2023-03-23T01:08:02;2.20;;;1.48;;
47053;SDS011;32811;52.382;5.270;2023-03-23T01:10:28;3.55;;;1.80;;
47053;SDS011;32811;52.382;5.270;2023-03-23T01:12:58;6.68;;;1.65;;
47053;SDS011;32811;52.382;5.270;2023-03-23T01:15:26;4.80;;;2.85;;
47053;SDS011;32811;52.382;5.270;2023-03-23T01:17:52;3.47;;;1.45;;
47053;SDS011;32811;52.382;5.270;2023-03-23T01:20:18;5.38;;;1.95;;
47053;SDS011;32811;52.382;5.270;2023-03-23T01:22:43;3.42;;;1.88;;
47053;SDS011;32811;52.382;5.270;2023-03-23T01:25:10;2.90;;;2.05;;
47053;SDS011;32811;52.382;5.270;2023-03-23T01:27:37;9.45;;;1.67;;
47053;SDS011;32811;52.382;5.270;2023-03-23T01:30:04;4.07;;;1.83;;
47053;SDS011;32811;52.382;5.270;2023-03-23T01:32:31;5.63;;;1.58;;
47053;SDS011;32811;52.382;5.270;2023-03-23T01:34:57;7.03;;;1.55;;
47053;SDS011;32811;52.382;5.270;2023-03-23T01:37:23;5.63;;;2.22;;
47053;SDS011;32811;52.382;5.270;2023-03-23T01:39:55;3.88;;;1.25;;
47053;SDS011;32811;52.382;5.270;2023-03-23T01:42:25;7.47;;;1.73;;
47053;SDS011;32811;52.382;5.270;2023-03-23T01:50:47;4.85;;;1.88;;
47053;SDS011;32811;52.382;5.270;2023-03-23T01:53:22;4.57;;;1.35;;
47053;SDS011;32811;52.382;5.270;2023-03-23T01:55:53;7.32;;;1.50;;
47053;SDS011;32811;52.382;5.270;2023-03-23T01:58:21;4.32;;;1.73;;
47053;SDS011;32811;52.382;5.270;2023-03-23T02:00:53;3.72;;;1.90;;
47053;SDS011;32811;52.382;5.270;2023-03-23T02:03:20;4.85;;;1.60;;
47053;SDS011;32811;52.382;5.270;2023-03-23T02:05:48;3.47;;;1.40;;
47053;SDS011;32811;52.382;5.270;2023-03-23T02:08:15;4.30;;;1.15;;
47053;SDS011;32811;52.382;5.270;2023-03-23T02:10:43;3.28;;;2.08;;
47053;SDS011;32811;52.382;5.270;2023-03-23T02:13:09;2.40;;;1.40;;
47053;SDS011;32811;52.382;5.270;2023-03-23T02:15:53;3.35;;;1.52;;
47053;SDS011;32811;52.382;5.270;2023-03-23T02:18:53;3.45;;;1.50;;
47053;SDS011;32811;52.382;5.270;2023-03-23T02:27:16;3.15;;;1.02;;
47053;SDS011;32811;52.382;5.270;2023-03-23T02:29:54;4.90;;;1.42;;
47053;SDS011;32811;52.382;5.270;2023-03-23T02:37:58;2.58;;;0.90;;
47053;SDS011;32811;52.382;5.270;2023-03-23T02:40:32;7.10;;;1.95;;
47053;SDS011;32811;52.382;5.270;2023-03-23T02:43:03;4.57;;;1.48;;
47053;SDS011;32811;52.382;5.270;2023-03-23T02:45:34;2.25;;;1.20;;
47053;SDS011;32811;52.382;5.270;2023-03-23T02:48:03;3.45;;;1.67;;
47053;SDS011;32811;52.382;5.270;2023-03-23T02:50:31;7.00;;;1.05;;
47053;SDS011;32811;52.382;5.270;2023-03-23T02:52:58;1.85;;;0.93;;
47053;SDS011;32811;52.382;5.270;2023-03-23T02:55:26;3.67;;;1.02;;
47053;SDS011;32811;52.382;5.270;2023-03-23T02:57:55;4.72;;;1.42;;
47053;SDS011;32811;52.382;5.270;2023-03-23T03:00:21;1.58;;;0.93;;
47053;SDS011;32811;52.382;5.270;2023-03-23T03:02:51;4.30;;;1.65;;
47053;SDS011;32811;52.382;5.270;2023-03-23T03:05:26;5.00;;;1.20;;
47053;SDS011;32811;52.382;5.270;2023-03-23T03:10:59;8.10;;;1.00;;
47053;SDS011;32811;52.382;5.270;2023-03-23T03:13:39;3.15;;;1.17;;
47053;SDS011;32811;52.382;5.270;2023-03-23T03:19:00;2.63;;;1.38;;
47053;SDS011;32811;52.382;5.270;2023-03-23T03:21:29;3.17;;;0.95;;
47053;SDS011;32811;52.382;5.270;2023-03-23T03:23:59;7.32;;;1.50;;
47053;SDS011;32811;52.382;5.270;2023-03-23T03:26:28;2.40;;;1.33;;
47053;SDS011;32811;52.382;5.270;2023-03-23T03:28:57;5.30;;;1.55;;
47053;SDS011;32811;52.382;5.270;2023-03-23T03:31:24;4.65;;;1.35;;
47053;SDS011;32811;52.382;5.270;2023-03-23T03:33:54;6.60;;;1.27;;
47053;SDS011;32811;52.382;5.270;2023-03-23T03:36:20;6.25;;;1.50;;
47053;SDS011;32811;52.382;5.270;2023-03-23T03:38:51;4.28;;;1.80;;
47053;SDS011;32811;52.382;5.270;2023-03-23T03:41:17;3.60;;;0.90;;
47053;SDS011;32811;52.382;5.270;2023-03-23T03:43:44;5.50;;;0.90;;
47053;SDS011;32811;52.382;5.270;2023-03-23T03:46:09;8.23;;;1.38;;
47053;SDS011;32811;52.382;5.270;2023-03-23T03:48:35;3.35;;;1.23;;
47053;SDS011;32811;52.382;5.270;2023-03-23T03:51:01;6.43;;;1.20;;
47053;SDS011;32811;52.382;5.270;2023-03-23T03:53:27;6.80;;;2.35;;
47053;SDS011;32811;52.382;5.270;2023-03-23T03:55:53;4.00;;;1.40;;
47053;SDS011;32811;52.382;5.270;2023-03-23T03:58:24;7.30;;;3.10;;
47053;SDS011;32811;52.382;5.270;2023-03-23T04:01:00;4.00;;;1.10;;
47053;SDS011;32811;52.382;5.270;2023-03-23T04:03:26;4.10;;;1.58;;
47053;SDS011;32811;52.382;5.270;2023-03-23T04:05:52;3.05;;;1.00;;
47053;SDS011;32811;52.382;5.270;2023-03-23T04:08:24;3.50;;;1.08;;
47053;SDS011;32811;52.382;5.270;2023-03-23T04:10:51;6.88;;;1.00;;
47053;SDS011;32811;52.382;5.270;2023-03-23T04:13:18;5.53;;;1.20;;
47053;SDS011;32811;52.382;5.270;2023-03-23T04:15:44;4.68;;;1.30;;
47053;SDS011;32811;52.382;5.270;2023-03-23T04:18:11;5.13;;;1.40;;
47053;SDS011;32811;52.382;5.270;2023-03-23T04:20:37;4.90;;;1.00;;
47053;SDS011;32811;52.382;5.270;2023-03-23T04:23:03;2.22;;;0.95;;
47053;SDS011;32811;52.382;5.270;2023-03-23T04:25:28;4.20;;;1.10;;
47053;SDS011;32811;52.382;5.270;2023-03-23T04:27:58;4.90;;;1.17;;
47053;SDS011;32811;52.382;5.270;2023-03-23T04:30:26;6.20;;;1.05;;
47053;SDS011;32811;52.382;5.270;2023-03-23T04:32:52;5.05;;;0.95;;
47053;SDS011;32811;52.382;5.270;2023-03-23T04:35:20;1.40;;;0.50;;
47053;SDS011;32811;52.382;5.270;2023-03-23T04:37:48;4.20;;;1.25;;
47053;SDS011;32811;52.382;5.270;2023-03-23T04:40:14;5.47;;;2.20;;
47053;SDS011;32811;52.382;5.270;2023-03-23T04:42:41;3.95;;;0.65;;
47053;SDS011;32811;52.382;5.270;2023-03-23T04:45:11;5.95;;;1.55;;
47053;SDS011;32811;52.382;5.270;2023-03-23T04:56:30;5.05;;;1.65;;
47053;SDS011;32811;52.382;5.270;2023-03-23T05:18:19;9.05;;;1.85;;
47053;SDS011;32811;52.382;5.270;2023-03-23T05:20:45;6.47;;;2.00;;
47053;SDS011;32811;52.382;5.270;2023-03-23T05:23:11;7.35;;;1.58;;
47053;SDS011;32811;52.382;5.270;2023-03-23T05:25:38;9.95;;;2.33;;
47053;SDS011;32811;52.382;5.270;2023-03-23T05:28:07;11.00;;;2.03;;
47053;SDS011;32811;52.382;5.270;2023-03-23T05:33:54;13.02;;;2.40;;
47053;SDS011;32811;52.382;5.270;2023-03-23T05:36:19;6.60;;;1.52;;
47053;SDS011;32811;52.382;5.270;2023-03-23T05:41:28;9.35;;;1.60;;
47053;SDS011;32811;52.382;5.270;2023-03-23T05:43:53;9.82;;;1.42;;
47053;SDS011;32811;52.382;5.270;2023-03-23T05:46:19;14.55;;;2.25;;
47053;SDS011;32811;52.382;5.270;2023-03-23T05:48:44;10.25;;;2.00;;
47053;SDS011;32811;52.382;5.270;2023-03-23T05:54:18;5.32;;;1.30;;
47053;SDS011;32811;52.382;5.270;2023-03-23T05:56:43;12.32;;;1.55;;
47053;SDS011;32811;52.382;5.270;2023-03-23T05:59:09;5.57;;;1.40;;
47053;SDS011;32811;52.382;5.270;2023-03-23T06:01:37;13.40;;;2.35;;
47053;SDS011;32811;52.382;5.270;2023-03-23T06:04:03;10.50;;;2.53;;
47053;SDS011;32811;52.382;5.270;2023-03-23T06:06:29;15.60;;;2.60;;
47053;SDS011;32811;52.382;5.270;2023-03-23T06:08:56;12.52;;;3.28;;
47053;SDS011;32811;52.382;5.270;2023-03-23T06:11:23;14.32;;;1.92;;
47053;SDS011;32811;52.382;5.270;2023-03-23T06:13:49;7.15;;;1.10;;
47053;SDS011;32811;52.382;5.270;2023-03-23T06:16:15;8.43;;;1.27;;
47053;SDS011;32811;52.382;5.270;2023-03-23T06:18:40;6.75;;;1.30;;
47053;SDS011;32811;52.382;5.270;2023-03-23T06:21:07;9.60;;;2.90;;
47053;SDS011;32811;52.382;5.270;2023-03-23T06:23:34;14.82;;;1.70;;
47053;SDS011;32811;52.382;5.270;2023-03-23T06:26:02;14.70;;;3.60;;
47053;SDS011;32811;52.382;5.270;2023-03-23T06:28:30;11.70;;;2.00;;
47053;SDS011;32811;52.382;5.270;2023-03-23T06:31:02;13.05;;;2.35;;
47053;SDS011;32811;52.382;5.270;2023-03-23T06:33:34;14.27;;;1.80;;
47053;SDS011;32811;52.382;5.270;2023-03-23T06:36:01;10.65;;;1.70;;
47053;SDS011;32811;52.382;5.270;2023-03-23T06:38:27;10.50;;;1.95;;
47053;SDS011;32811;52.382;5.270;2023-03-23T06:40:53;12.85;;;2.28;;
47053;SDS011;32811;52.382;5.270;2023-03-23T06:43:20;9.32;;;2.05;;
47053;SDS011;32811;52.382;5.270;2023-03-23T06:45:46;15.65;;;1.70;;
47053;SDS011;32811;52.382;5.270;2023-03-23T06:48:12;12.52;;;2.42;;
47053;SDS011;32811;52.382;5.270;2023-03-23T06:53:44;14.90;;;2.20;;
47053;SDS011;32811;52.382;5.270;2023-03-23T06:56:10;13.50;;;2.53;;
47053;SDS011;32811;52.382;5.270;2023-03-23T06:58:38;15.43;;;2.30;;
47053;SDS011;32811;52.382;5.270;2023-03-23T07:01:04;9.55;;;2.53;;
47053;SDS011;32811;52.382;5.270;2023-03-23T07:03:31;13.02;;;2.97;;
47053;SDS011;32811;52.382;5.270;2023-03-23T07:05:56;20.38;;;3.95;;
47053;SDS011;32811;52.382;5.270;2023-03-23T07:08:22;14.93;;;2.95;;
47053;SDS011;32811;52.382;5.270;2023-03-23T07:10:50;13.35;;;3.00;;
47053;SDS011;32811;52.382;5.270;2023-03-23T07:13:17;15.70;;;4.22;;
47053;SDS011;32811;52.382;5.270;2023-03-23T07:15:43;17.10;;;2.63;;
47053;SDS011;32811;52.382;5.270;2023-03-23T07:18:09;14.48;;;2.47;;
47053;SDS011;32811;52.382;5.270;2023-03-23T07:20:34;17.63;;;3.15;;
47053;SDS011;32811;52.382;5.270;2023-03-23T07:23:01;17.17;;;3.17;;
47053;SDS011;32811;52.382;5.270;2023-03-23T07:25:27;20.52;;;2.88;;
47053;SDS011;32811;52.382;5.270;2023-03-23T07:27:52;19.63;;;3.08;;
47053;SDS011;32811;52.382;5.270;2023-03-23T07:30:18;18.98;;;3.65;;
47053;SDS011;32811;52.382;5.270;2023-03-23T07:32:44;11.88;;;2.33;;
47053;SDS011;32811;52.382;5.270;2023-03-23T07:35:10;15.27;;;2.17;;
47053;SDS011;32811;52.382;5.270;2023-03-23T07:37:36;17.73;;;3.92;;
47053;SDS011;32811;52.382;5.270;2023-03-23T07:40:02;12.40;;;2.25;;
47053;SDS011;32811;52.382;5.270;2023-03-23T07:42:42;15.10;;;2.40;;
47053;SDS011;32811;52.382;5.270;2023-03-23T07:45:17;22.98;;;3.70;;
47053;SDS011;32811;52.382;5.270;2023-03-23T07:50:30;22.65;;;2.92;;
47053;SDS011;32811;52.382;5.270;2023-03-23T07:52:57;19.75;;;2.47;;
47053;SDS011;32811;52.382;5.270;2023-03-23T07:55:23;19.55;;;3.45;;
47053;SDS011;32811;52.382;5.270;2023-03-23T07:57:50;18.75;;;1.98;;
47053;SDS011;32811;52.382;5.270;2023-03-23T08:00:16;19.98;;;2.63;;
47053;SDS011;32811;52.382;5.270;2023-03-23T08:02:49;21.20;;;4.63;;
47053;SDS011;32811;52.382;5.270;2023-03-23T08:05:20;18.40;;;2.22;;
47053;SDS011;32811;52.382;5.270;2023-03-23T08:07:47;14.52;;;2.50;;
47053;SDS011;32811;52.382;5.270;2023-03-23T08:10:14;13.35;;;2.20;;
47053;SDS011;32811;52.382;5.270;2023-03-23T08:12:40;16.65;;;2.50;;
47053;SDS011;32811;52.382;5.270;2023-03-23T08:15:08;13.20;;;3.50;;
47053;SDS011;32811;52.382;5.270;2023-03-23T08:17:38;10.45;;;2.58;;
47053;SDS011;32811;52.382;5.270;2023-03-23T08:20:05;13.35;;;2.25;;
47053;SDS011;32811;52.382;5.270;2023-03-23T08:22:36;10.00;;;1.80;;
47053;SDS011;32811;52.382;5.270;2023-03-23T08:25:04;8.23;;;1.88;;
47053;SDS011;32811;52.382;5.270;2023-03-23T08:27:31;19.92;;;3.80;;
47053;SDS011;32811;52.382;5.270;2023-03-23T08:29:57;13.05;;;2.45;;
47053;SDS011;32811;52.382;5.270;2023-03-23T08:32:23;14.15;;;2.05;;
47053;SDS011;32811;52.382;5.270;2023-03-23T08:34:49;11.98;;;1.90;;
47053;SDS011;32811;52.382;5.270;2023-03-23T08:37:15;12.93;;;2.08;;
47053;SDS011;32811;52.382;5.270;2023-03-23T08:39:40;16.30;;;2.65;;
47053;SDS011;32811;52.382;5.270;2023-03-23T08:42:08;9.18;;;1.60;;
47053;SDS011;32811;52.382;5.270;2023-03-23T08:44:42;7.78;;;2.85;;
47053;SDS011;32811;52.382;5.270;2023-03-23T08:47:11;11.43;;;1.58;;
47053;SDS011;32811;52.382;5.270;2023-03-23T08:49:50;5.97;;;1.60;;
47053;SDS011;32811;52.382;5.270;2023-03-23T08:52:23;11.50;;;2.28;;
47053;SDS011;32811;52.382;5.270;2023-03-23T08:54:52;10.13;;;1.67;;
47053;SDS011;32811;52.382;5.270;2023-03-23T08:57:18;11.25;;;1.65;;
47053;SDS011;32811;52.382;5.270;2023-03-23T08:59:46;7.43;;;1.70;;
47053;SDS011;32811;52.382;5.270;2023-03-23T09:02:14;7.15;;;1.73;;
47053;SDS011;32811;52.382;5.270;2023-03-23T09:04:40;6.57;;;1.30;;
47053;SDS011;32811;52.382;5.270;2023-03-23T09:07:09;11.60;;;1.05;;
47053;SDS011;32811;52.382;5.270;2023-03-23T09:09:37;7.47;;;2.00;;
47053;SDS011;32811;52.382;5.270;2023-03-23T09:12:05;12.63;;;1.70;;
47053;SDS011;32811;52.382;5.270;2023-03-23T09:14:31;6.07;;;1.27;;
47053;SDS011;32811;52.382;5.270;2023-03-23T09:16:57;10.30;;;2.58;;
47053;SDS011;32811;52.382;5.270;2023-03-23T09:19:23;10.32;;;2.30;;
47053;SDS011;32811;52.382;5.270;2023-03-23T09:21:48;13.75;;;2.25;;
47053;SDS011;32811;52.382;5.270;2023-03-23T09:24:14;12.43;;;1.58;;
47053;SDS011;32811;52.382;5.270;2023-03-23T09:26:40;8.48;;;1.52;;
47053;SDS011;32811;52.382;5.270;2023-03-23T09:29:06;8.43;;;1.92;;
47053;SDS011;32811;52.382;5.270;2023-03-23T09:31:31;13.52;;;2.95;;
47053;SDS011;32811;52.382;5.270;2023-03-23T09:33:57;8.73;;;1.40;;
47053;SDS011;32811;52.382;5.270;2023-03-23T09:36:24;8.88;;;1.98;;
47053;SDS011;32811;52.382;5.270;2023-03-23T09:38:57;11.48;;;2.65;;
47053;SDS011;32811;52.382;5.270;2023-03-23T09:46:52;5.55;;;2.00;;
47053;SDS011;32811;52.382;5.270;2023-03-23T09:49:27;13.60;;;3.15;;
47053;SDS011;32811;52.382;5.270;2023-03-23T09:52:01;16.02;;;2.58;;
47053;SDS011;32811;52.382;5.270;2023-03-23T09:54:37;9.25;;;1.85;;
47053;SDS011;32811;52.382;5.270;2023-03-23T10:00:15;9.32;;;1.48;;
47053;SDS011;32811;52.382;5.270;2023-03-23T10:03:02;13.70;;;2.65;;
47053;SDS011;32811;52.382;5.270;2023-03-23T10:05:38;14.10;;;1.95;;
47053;SDS011;32811;52.382;5.270;2023-03-23T10:08:11;10.48;;;2.75;;
47053;SDS011;32811;52.382;5.270;2023-03-23T10:16:32;12.07;;;1.77;;
47053;SDS011;32811;52.382;5.270;2023-03-23T10:21:34;14.25;;;1.90;;
47053;SDS011;32811;52.382;5.270;2023-03-23T10:24:03;13.30;;;2.33;;
47053;SDS011;32811;52.382;5.270;2023-03-23T10:26:42;10.27;;;2.00;;
47053;SDS011;32811;52.382;5.270;2023-03-23T10:32:03;16.25;;;2.42;;
47053;SDS011;32811;52.382;5.270;2023-03-23T10:37:09;12.80;;;1.73;;
47053;SDS011;32811;52.382;5.270;2023-03-23T10:39:50;18.10;;;3.25;;
47053;SDS011;32811;52.382;5.270;2023-03-23T10:42:26;14.40;;;2.90;;
47053;SDS011;32811;52.382;5.270;2023-03-23T10:44:55;15.02;;;2.28;;
47053;SDS011;32811;52.382;5.270;2023-03-23T10:47:21;7.93;;;2.28;;
47053;SDS011;32811;52.382;5.270;2023-03-23T10:49:53;14.07;;;1.95;;
47053;SDS011;32811;52.382;5.270;2023-03-23T10:52:34;11.50;;;1.70;;
47053;SDS011;32811;52.382;5.270;2023-03-23T10:57:34;18.52;;;3.25;;
47053;SDS011;32811;52.382;5.270;2023-03-23T11:02:43;17.65;;;2.60;;
47053;SDS011;32811;52.382;5.270;2023-03-23T11:05:16;8.30;;;1.88;;
47053;SDS011;32811;52.382;5.270;2023-03-23T11:07:52;24.90;;;3.25;;
47053;SDS011;32811;52.382;5.270;2023-03-23T11:10:54;13.93;;;2.22;;
47053;SDS011;32811;52.382;5.270;2023-03-23T11:13:19;13.82;;;3.83;;
47053;SDS011;32811;52.382;5.270;2023-03-23T11:15:47;9.07;;;2.00;;
47053;SDS011;32811;52.382;5.270;2023-03-23T11:20:50;10.13;;;2.08;;
47053;SDS011;32811;52.382;5.270;2023-03-23T11:28:26;14.75;;;2.80;;
47053;SDS011;32811;52.382;5.270;2023-03-23T11:30:56;10.23;;;2.00;;
47053;SDS011;32811;52.382;5.270;2023-03-23T11:33:24;13.43;;;2.63;;
47053;SDS011;32811;52.382;5.270;2023-03-23T11:35:53;11.50;;;2.47;;
47053;SDS011;32811;52.382;5.270;2023-03-23T11:38:20;12.38;;;1.83;;
47053;SDS011;32811;52.382;5.270;2023-03-23T11:40:51;12.70;;;2.15;;
47053;SDS011;32811;52.382;5.270;2023-03-23T11:43:24;16.95;;;4.13;;
47053;SDS011;32811;52.382;5.270;2023-03-23T11:48:55;16.00;;;2.25;;
47053;SDS011;32811;52.382;5.270;2023-03-23T11:57:46;14.63;;;2.50;;
47053;SDS011;32811;52.382;5.270;2023-03-23T12:00:21;25.67;;;3.15;;
47053;SDS011;32811;52.382;5.270;2023-03-23T12:02:53;10.27;;;1.98;;
47053;SDS011;32811;52.382;5.270;2023-03-23T12:08:18;14.32;;;2.45;;
47053;SDS011;32811;52.382;5.270;2023-03-23T12:10:58;17.00;;;3.42;;
47053;SDS011;32811;52.382;5.270;2023-03-23T12:21:40;18.17;;;2.63;;
47053;SDS011;32811;52.382;5.270;2023-03-23T12:26:47;13.35;;;3.15;;
47053;SDS011;32811;52.382;5.270;2023-03-23T12:33:27;15.90;;;3.40;;
47053;SDS011;32811;52.382;5.270;2023-03-23T12:35:43;13.27;;;2.20;;
47053;SDS011;32811;52.382;5.270;2023-03-23T12:38:40;13.27;;;2.25;;
47053;SDS011;32811;52.382;5.270;2023-03-23T12:41:34;14.40;;;2.35;;
47053;SDS011;32811;52.382;5.270;2023-03-23T12:44:17;14.15;;;2.38;;
47053;SDS011;32811;52.382;5.270;2023-03-23T12:46:56;13.95;;;1.88;;
47053;SDS011;32811;52.382;5.270;2023-03-23T12:49:37;14.35;;;3.42;;
47053;SDS011;32811;52.382;5.270;2023-03-23T12:52:11;14.63;;;2.80;;
47053;SDS011;32811;52.382;5.270;2023-03-23T13:00:19;9.13;;;2.17;;
47053;SDS011;32811;52.382;5.270;2023-03-23T13:05:36;12.43;;;1.63;;
47053;SDS011;32811;52.382;5.270;2023-03-23T13:08:10;13.38;;;2.90;;
47053;SDS011;32811;52.382;5.270;2023-03-23T13:10:44;8.43;;;1.50;;
47053;SDS011;32811;52.382;5.270;2023-03-23T13:13:23;9.25;;;1.60;;
47053;SDS011;32811;52.382;5.270;2023-03-23T13:16:05;6.72;;;1.42;;
47053;SDS011;32811;52.382;5.270;2023-03-23T13:21:25;9.47;;;2.10;;
47053;SDS011;32811;52.382;5.270;2023-03-23T13:24:04;9.35;;;2.05;;
47053;SDS011;32811;52.382;5.270;2023-03-23T13:26:39;10.05;;;1.50;;
47053;SDS011;32811;52.382;5.270;2023-03-23T13:29:20;10.23;;;1.73;;
47053;SDS011;32811;52.382;5.270;2023-03-23T13:31:49;9.15;;;2.28;;
47053;SDS011;32811;52.382;5.270;2023-03-23T13:34:20;11.02;;;1.60;;
47053;SDS011;32811;52.382;5.270;2023-03-23T13:36:55;13.82;;;2.00;;
47053;SDS011;32811;52.382;5.270;2023-03-23T13:39:31;11.30;;;1.45;;
47053;SDS011;32811;52.382;5.270;2023-03-23T13:55:47;10.93;;;2.05;;
47053;SDS011;32811;52.382;5.270;2023-03-23T13:58:25;11.02;;;1.73;;
47053;SDS011;32811;52.382;5.270;2023-03-23T14:01:11;11.73;;;1.92;;
47053;SDS011;32811;52.382;5.270;2023-03-23T14:03:42;13.88;;;3.60;;
47053;SDS011;32811;52.382;5.270;2023-03-23T14:06:16;10.73;;;2.42;;
47053;SDS011;32811;52.382;5.270;2023-03-23T14:08:45;12.70;;;2.70;;
47053;SDS011;32811;52.382;5.270;2023-03-23T14:11:22;14.30;;;1.48;;
47053;SDS011;32811;52.382;5.270;2023-03-23T14:16:20;10.88;;;1.90;;
47053;SDS011;32811;52.382;5.270;2023-03-23T14:18:54;10.93;;;1.77;;
47053;SDS011;32811;52.382;5.270;2023-03-23T14:23:59;16.23;;;2.08;;
47053;SDS011;32811;52.382;5.270;2023-03-23T14:26:29;11.45;;;2.55;;
47053;SDS011;32811;52.382;5.270;2023-03-23T14:28:59;11.60;;;2.33;;
47053;SDS011;32811;52.382;5.270;2023-03-23T14:31:26;11.75;;;2.63;;
47053;SDS011;32811;52.382;5.270;2023-03-23T14:33:53;9.20;;;2.20;;
47053;SDS011;32811;52.382;5.270;2023-03-23T14:36:25;18.73;;;3.30;;
47053;SDS011;32811;52.382;5.270;2023-03-23T14:39:00;11.95;;;2.00;;
47053;SDS011;32811;52.382;5.270;2023-03-23T14:41:31;11.80;;;2.17;;
47053;SDS011;32811;52.382;5.270;2023-03-23T14:44:01;9.93;;;2.45;;
47053;SDS011;32811;52.382;5.270;2023-03-23T14:46:29;13.40;;;2.55;;
47053;SDS011;32811;52.382;5.270;2023-03-23T14:48:56;10.25;;;2.40;;
47053;SDS011;32811;52.382;5.270;2023-03-23T14:51:26;13.43;;;2.72;;
47053;SDS011;32811;52.382;5.270;2023-03-23T14:53:52;8.77;;;1.77;;
47053;SDS011;32811;52.382;5.270;2023-03-23T14:56:21;13.85;;;2.13;;
47053;SDS011;32811;52.382;5.270;2023-03-23T14:58:51;14.55;;;2.83;;
47053;SDS011;32811;52.382;5.270;2023-03-23T15:01:26;9.07;;;1.52;;
47053;SDS011;32811;52.382;5.270;2023-03-23T15:06:22;10.23;;;1.33;;
47053;SDS011;32811;52.382;5.270;2023-03-23T15:08:53;9.73;;;2.10;;
47053;SDS011;32811;52.382;5.270;2023-03-23T15:11:28;10.43;;;2.17;;
47053;SDS011;32811;52.382;5.270;2023-03-23T15:13:58;8.65;;;1.83;;
47053;SDS011;32811;52.382;5.270;2023-03-23T15:16:32;11.10;;;1.70;;
47053;SDS011;32811;52.382;5.270;2023-03-23T15:19:04;8.75;;;1.50;;
47053;SDS011;32811;52.382;5.270;2023-03-23T15:21:45;11.93;;;2.03;;
47053;SDS011;32811;52.382;5.270;2023-03-23T15:24:25;7.72;;;1.80;;
47053;SDS011;32811;52.382;5.270;2023-03-23T15:26:52;14.55;;;1.95;;
47053;SDS011;32811;52.382;5.270;2023-03-23T15:29:19;16.00;;;2.75;;
47053;SDS011;32811;52.382;5.270;2023-03-23T15:31:57;13.77;;;1.98;;
47053;SDS011;32811;52.382;5.270;2023-03-23T15:34:36;13.45;;;1.65;;
47053;SDS011;32811;52.382;5.270;2023-03-23T15:37:16;15.52;;;2.72;;
47053;SDS011;32811;52.382;5.270;2023-03-23T15:39:45;10.50;;;1.88;;
47053;SDS011;32811;52.382;5.270;2023-03-23T15:42:22;11.75;;;2.83;;
47053;SDS011;32811;52.382;5.270;2023-03-23T15:44:56;12.25;;;2.53;;
47053;SDS011;32811;52.382;5.270;2023-03-23T15:47:33;11.52;;;1.80;;
47053;SDS011;32811;52.382;5.270;2023-03-23T15:50:12;8.75;;;1.60;;
47053;SDS011;32811;52.382;5.270;2023-03-23T15:52:43;14.63;;;2.40;;
47053;SDS011;32811;52.382;5.270;2023-03-23T15:57:51;13.05;;;2.70;;
47053;SDS011;32811;52.382;5.270;2023-03-23T16:00:20;15.18;;;2.67;;
47053;SDS011;32811;52.382;5.270;2023-03-23T16:02:51;13.43;;;2.40;;
47053;SDS011;32811;52.382;5.270;2023-03-23T16:05:23;12.48;;;2.17;;
47053;SDS011;32811;52.382;5.270;2023-03-23T16:07:50;12.02;;;2.72;;
47053;SDS011;32811;52.382;5.270;2023-03-23T16:10:17;9.23;;;1.58;;
47053;SDS011;32811;52.382;5.270;2023-03-23T16:13:10;9.48;;;2.35;;
47053;SDS011;32811;52.382;5.270;2023-03-23T16:16:01;11.07;;;2.17;;
47053;SDS011;32811;52.382;5.270;2023-03-23T16:18:54;12.57;;;2.00;;
47053;SDS011;32811;52.382;5.270;2023-03-23T16:21:45;7.72;;;1.63;;
47053;SDS011;32811;52.382;5.270;2023-03-23T16:24:36;14.32;;;1.70;;
47053;SDS011;32811;52.382;5.270;2023-03-23T16:27:03;9.88;;;2.70;;
47053;SDS011;32811;52.382;5.270;2023-03-23T16:29:30;12.75;;;2.17;;
47053;SDS011;32811;52.382;5.270;2023-03-23T16:32:17;13.23;;;2.28;;
47053;SDS011;32811;52.382;5.270;2023-03-23T16:34:44;16.02;;;2.05;;
47053;SDS011;32811;52.382;5.270;2023-03-23T16:37:10;11.35;;;1.60;;
47053;SDS011;32811;52.382;5.270;2023-03-23T16:39:37;16.05;;;2.70;;
47053;SDS011;32811;52.382;5.270;2023-03-23T16:42:04;12.45;;;2.05;;
47053;SDS011;32811;52.382;5.270;2023-03-23T16:44:30;12.68;;;1.95;;
47053;SDS011;32811;52.382;5.270;2023-03-23T16:46:57;13.30;;;2.65;;
47053;SDS011;32811;52.382;5.270;2023-03-23T16:49:23;5.35;;;1.23;;
47053;SDS011;32811;52.382;5.270;2023-03-23T16:51:50;6.68;;;1.17;;
47053;SDS011;32811;52.382;5.270;2023-03-23T16:54:17;11.30;;;1.73;;
47053;SDS011;32811;52.382;5.270;2023-03-23T16:56:43;11.32;;;1.80;;
47053;SDS011;32811;52.382;5.270;2023-03-23T16:59:12;9.10;;;2.10;;
47053;SDS011;32811;52.382;5.270;2023-03-23T17:01:39;7.05;;;2.28;;
47053;SDS011;32811;52.382;5.270;2023-03-23T17:04:06;14.07;;;2.58;;
47053;SDS011;32811;52.382;5.270;2023-03-23T17:06:33;9.95;;;2.00;;
47053;SDS011;32811;52.382;5.270;2023-03-23T17:08:59;15.60;;;3.63;;
47053;SDS011;32811;52.382;5.270;2023-03-23T17:11:26;5.85;;;1.35;;
47053;SDS011;32811;52.382;5.270;2023-03-23T17:13:52;12.40;;;1.50;;
47053;SDS011;32811;52.382;5.270;2023-03-23T17:16:19;7.40;;;1.63;;
47053;SDS011;32811;52.382;5.270;2023-03-23T17:18:46;11.63;;;1.70;;
47053;SDS011;32811;52.382;5.270;2023-03-23T17:21:13;15.25;;;3.33;;
47053;SDS011;32811;52.382;5.270;2023-03-23T17:23:40;7.47;;;1.60;;
47053;SDS011;32811;52.382;5.270;2023-03-23T17:26:06;13.32;;;1.65;;
47053;SDS011;32811;52.382;5.270;2023-03-23T17:28:33;12.38;;;2.22;;
47053;SDS011;32811;52.382;5.270;2023-03-23T17:31:00;10.57;;;2.35;;
47053;SDS011;32811;52.382;5.270;2023-03-23T17:33:26;13.18;;;1.73;;
47053;SDS011;32811;52.382;5.270;2023-03-23T17:35:53;6.57;;;1.38;;
47053;SDS011;32811;52.382;5.270;2023-03-23T17:38:20;5.38;;;1.63;;
47053;SDS011;32811;52.382;5.270;2023-03-23T17:40:46;11.10;;;1.80;;